sensor_id;sensor_type;location;lat;lon;timestamp;P1;durP1;ratioP1;P2;durP2;ratioP2
5569;SDS011;2808;51.240;6.794;2022-07-01T00:01:49;8.07;;;5.43;;
5569;SDS011;2808;51.240;6.794;2022-07-01T00:04:17;10.07;;;6.33;;
5569;SDS011;2808;51.240;6.794;2022-07-01T00:06:44;9.53;;;5.73;;
5569;SDS011;2808;51.240;6.794;2022-07-01T00:09:12;8.97;;;5.80;;
5569;SDS011;2808;51.240;6.794;2022-07-01T00:11:42;9.47;;;5.80;;
5569;SDS011;2808;51.240;6.794;2022-07-01T00:14:10;10.00;;;6.30;;
5569;SDS011;2808;51.240;6.794;2022-07-01T00:16:37;9.83;;;5.40;;
5569;SDS011;2808;51.240;6.794;2022-07-01T00:19:07;9.23;;;5.80;;
5569;SDS011;2808;51.240;6.794;2022-07-01T00:21:34;9.80;;;5.47;;
5569;SDS011;2808;51.240;6.794;2022-07-01T00:24:02;9.90;;;5.33;;
5569;SDS011;2808;51.240;6.794;2022-07-01T00:26:31;9.23;;;5.57;;
5569;SDS011;2808;51.240;6.794;2022-07-01T00:28:59;9.73;;;5.83;;
5569;SDS011;2808;51.240;6.794;2022-07-01T00:31:26;9.50;;;5.60;;
5569;SDS011;2808;51.240;6.794;2022-07-01T00:33:54;8.60;;;5.43;;
5569;SDS011;2808;51.240;6.794;2022-07-01T00:36:23;8.67;;;5.10;;
5569;SDS011;2808;51.240;6.794;2022-07-01T00:38:51;9.63;;;5.20;;
5569;SDS011;2808;51.240;6.794;2022-07-01T00:41:18;6.40;;;4.37;;
5569;SDS011;2808;51.240;6.794;2022-07-01T00:43:47;8.77;;;4.40;;
5569;SDS011;2808;51.240;6.794;2022-07-01T00:46:15;8.03;;;4.90;;
5569;SDS011;2808;51.240;6.794;2022-07-01T00:48:43;11.03;;;4.90;;
5569;SDS011;2808;51.240;6.794;2022-07-01T00:51:11;13.53;;;4.80;;
5569;SDS011;2808;51.240;6.794;2022-07-01T00:53:41;9.00;;;5.03;;
5569;SDS011;2808;51.240;6.794;2022-07-01T00:56:11;9.37;;;5.43;;
5569;SDS011;2808;51.240;6.794;2022-07-01T00:58:39;8.90;;;4.87;;
5569;SDS011;2808;51.240;6.794;2022-07-01T01:01:07;7.60;;;4.70;;
5569;SDS011;2808;51.240;6.794;2022-07-01T01:03:37;8.73;;;4.17;;
5569;SDS011;2808;51.240;6.794;2022-07-01T01:06:04;9.00;;;4.87;;
5569;SDS011;2808;51.240;6.794;2022-07-01T01:08:32;8.00;;;4.70;;
5569;SDS011;2808;51.240;6.794;2022-07-01T01:11:02;8.83;;;4.37;;
5569;SDS011;2808;51.240;6.794;2022-07-01T01:13:31;7.57;;;4.30;;
5569;SDS011;2808;51.240;6.794;2022-07-01T01:15:59;12.23;;;4.40;;
5569;SDS011;2808;51.240;6.794;2022-07-01T01:18:27;9.17;;;4.80;;
5569;SDS011;2808;51.240;6.794;2022-07-01T01:20:56;13.50;;;4.73;;
5569;SDS011;2808;51.240;6.794;2022-07-01T01:23:23;9.53;;;4.50;;
5569;SDS011;2808;51.240;6.794;2022-07-01T01:25:51;9.97;;;4.40;;
5569;SDS011;2808;51.240;6.794;2022-07-01T01:28:19;10.13;;;4.37;;
5569;SDS011;2808;51.240;6.794;2022-07-01T01:30:46;14.40;;;4.90;;
5569;SDS011;2808;51.240;6.794;2022-07-01T01:33:15;12.10;;;5.50;;
5569;SDS011;2808;51.240;6.794;2022-07-01T01:35:43;10.60;;;6.00;;
5569;SDS011;2808;51.240;6.794;2022-07-01T01:38:12;19.53;;;6.77;;
5569;SDS011;2808;51.240;6.794;2022-07-01T01:40:40;13.70;;;7.53;;
5569;SDS011;2808;51.240;6.794;2022-07-01T01:43:09;14.20;;;7.77;;
5569;SDS011;2808;51.240;6.794;2022-07-01T01:45:36;15.00;;;9.50;;
5569;SDS011;2808;51.240;6.794;2022-07-01T01:48:05;15.97;;;8.20;;
5569;SDS011;2808;51.240;6.794;2022-07-01T01:50:32;14.43;;;8.83;;
5569;SDS011;2808;51.240;6.794;2022-07-01T01:53:00;18.47;;;9.23;;
5569;SDS011;2808;51.240;6.794;2022-07-01T01:55:28;13.30;;;8.00;;
5569;SDS011;2808;51.240;6.794;2022-07-01T01:57:56;15.37;;;7.97;;
5569;SDS011;2808;51.240;6.794;2022-07-01T02:00:23;15.50;;;8.30;;
5569;SDS011;2808;51.240;6.794;2022-07-01T02:02:51;19.60;;;8.40;;
5569;SDS011;2808;51.240;6.794;2022-07-01T02:05:18;18.20;;;10.10;;
5569;SDS011;2808;51.240;6.794;2022-07-01T02:07:46;19.30;;;8.73;;
5569;SDS011;2808;51.240;6.794;2022-07-01T02:10:14;16.90;;;9.23;;
5569;SDS011;2808;51.240;6.794;2022-07-01T02:12:43;17.50;;;10.67;;
5569;SDS011;2808;51.240;6.794;2022-07-01T02:15:10;15.70;;;9.87;;
5569;SDS011;2808;51.240;6.794;2022-07-01T02:17:37;22.03;;;10.10;;
5569;SDS011;2808;51.240;6.794;2022-07-01T02:20:05;15.03;;;8.73;;
5569;SDS011;2808;51.240;6.794;2022-07-01T02:22:33;17.70;;;10.10;;
5569;SDS011;2808;51.240;6.794;2022-07-01T02:25:01;20.37;;;9.40;;
5569;SDS011;2808;51.240;6.794;2022-07-01T02:27:29;19.67;;;9.00;;
5569;SDS011;2808;51.240;6.794;2022-07-01T02:29:57;17.70;;;9.57;;
5569;SDS011;2808;51.240;6.794;2022-07-01T02:32:25;23.73;;;8.90;;
5569;SDS011;2808;51.240;6.794;2022-07-01T02:34:52;13.93;;;7.77;;
5569;SDS011;2808;51.240;6.794;2022-07-01T02:37:20;15.17;;;7.90;;
5569;SDS011;2808;51.240;6.794;2022-07-01T02:39:47;12.87;;;7.63;;
5569;SDS011;2808;51.240;6.794;2022-07-01T02:42:15;15.83;;;6.87;;
5569;SDS011;2808;51.240;6.794;2022-07-01T02:45:01;12.33;;;7.10;;
5569;SDS011;2808;51.240;6.794;2022-07-01T02:47:32;13.67;;;7.30;;
5569;SDS011;2808;51.240;6.794;2022-07-01T02:50:00;17.13;;;7.97;;
5569;SDS011;2808;51.240;6.794;2022-07-01T02:52:29;12.70;;;7.30;;
5569;SDS011;2808;51.240;6.794;2022-07-01T02:54:57;15.30;;;7.23;;
5569;SDS011;2808;51.240;6.794;2022-07-01T02:57:24;10.13;;;5.93;;
5569;SDS011;2808;51.240;6.794;2022-07-01T02:59:52;13.83;;;7.07;;
5569;SDS011;2808;51.240;6.794;2022-07-01T03:02:21;10.77;;;6.20;;
5569;SDS011;2808;51.240;6.794;2022-07-01T03:04:48;12.47;;;5.90;;
5569;SDS011;2808;51.240;6.794;2022-07-01T03:07:17;11.43;;;6.10;;
5569;SDS011;2808;51.240;6.794;2022-07-01T03:09:48;8.30;;;5.63;;
5569;SDS011;2808;51.240;6.794;2022-07-01T03:12:15;13.10;;;6.27;;
5569;SDS011;2808;51.240;6.794;2022-07-01T03:14:53;12.77;;;5.97;;
5569;SDS011;2808;51.240;6.794;2022-07-01T03:17:25;17.53;;;6.50;;
5569;SDS011;2808;51.240;6.794;2022-07-01T03:19:54;13.03;;;5.63;;
5569;SDS011;2808;51.240;6.794;2022-07-01T03:22:23;13.43;;;5.77;;
5569;SDS011;2808;51.240;6.794;2022-07-01T03:24:51;9.40;;;5.57;;
5569;SDS011;2808;51.240;6.794;2022-07-01T03:27:19;9.90;;;5.60;;
5569;SDS011;2808;51.240;6.794;2022-07-01T03:29:48;13.50;;;5.40;;
5569;SDS011;2808;51.240;6.794;2022-07-01T03:32:16;9.27;;;5.07;;
5569;SDS011;2808;51.240;6.794;2022-07-01T03:34:47;13.67;;;5.80;;
5569;SDS011;2808;51.240;6.794;2022-07-01T03:37:16;15.60;;;5.97;;
5569;SDS011;2808;51.240;6.794;2022-07-01T03:39:44;10.30;;;5.43;;
5569;SDS011;2808;51.240;6.794;2022-07-01T03:42:12;11.10;;;5.37;;
5569;SDS011;2808;51.240;6.794;2022-07-01T03:44:40;8.40;;;5.20;;
5569;SDS011;2808;51.240;6.794;2022-07-01T03:47:09;11.90;;;5.40;;
5569;SDS011;2808;51.240;6.794;2022-07-01T03:49:38;16.17;;;5.40;;
5569;SDS011;2808;51.240;6.794;2022-07-01T03:52:07;16.37;;;4.50;;
5569;SDS011;2808;51.240;6.794;2022-07-01T03:54:35;15.13;;;5.30;;
5569;SDS011;2808;51.240;6.794;2022-07-01T03:57:04;13.43;;;5.00;;
5569;SDS011;2808;51.240;6.794;2022-07-01T03:59:32;16.73;;;5.40;;
5569;SDS011;2808;51.240;6.794;2022-07-01T04:02:01;13.43;;;4.60;;
5569;SDS011;2808;51.240;6.794;2022-07-01T04:04:29;10.27;;;4.43;;
5569;SDS011;2808;51.240;6.794;2022-07-01T04:06:57;11.67;;;4.40;;
5569;SDS011;2808;51.240;6.794;2022-07-01T04:09:27;11.40;;;3.87;;
5569;SDS011;2808;51.240;6.794;2022-07-01T04:11:55;13.57;;;4.20;;
5569;SDS011;2808;51.240;6.794;2022-07-01T04:14:24;12.70;;;4.20;;
5569;SDS011;2808;51.240;6.794;2022-07-01T04:16:52;6.80;;;3.33;;
5569;SDS011;2808;51.240;6.794;2022-07-01T04:19:19;9.13;;;3.57;;
5569;SDS011;2808;51.240;6.794;2022-07-01T04:21:47;10.73;;;3.97;;
5569;SDS011;2808;51.240;6.794;2022-07-01T04:24:33;8.27;;;3.60;;
5569;SDS011;2808;51.240;6.794;2022-07-01T04:27:00;7.20;;;3.70;;
5569;SDS011;2808;51.240;6.794;2022-07-01T04:29:28;10.43;;;3.23;;
5569;SDS011;2808;51.240;6.794;2022-07-01T04:31:56;6.60;;;3.37;;
5569;SDS011;2808;51.240;6.794;2022-07-01T04:34:23;11.10;;;3.20;;
5569;SDS011;2808;51.240;6.794;2022-07-01T04:36:51;11.40;;;3.87;;
5569;SDS011;2808;51.240;6.794;2022-07-01T04:39:18;13.00;;;3.20;;
5569;SDS011;2808;51.240;6.794;2022-07-01T04:41:47;7.90;;;3.13;;
5569;SDS011;2808;51.240;6.794;2022-07-01T04:44:28;18.40;;;3.27;;
5569;SDS011;2808;51.240;6.794;2022-07-01T04:46:57;8.00;;;3.17;;
5569;SDS011;2808;51.240;6.794;2022-07-01T04:49:25;11.93;;;3.67;;
5569;SDS011;2808;51.240;6.794;2022-07-01T04:51:53;10.17;;;3.87;;
5569;SDS011;2808;51.240;6.794;2022-07-01T04:54:21;32.93;;;19.73;;
5569;SDS011;2808;51.240;6.794;2022-07-01T04:56:51;11.53;;;3.57;;
5569;SDS011;2808;51.240;6.794;2022-07-01T04:59:19;14.50;;;7.60;;
5569;SDS011;2808;51.240;6.794;2022-07-01T05:01:47;8.90;;;3.10;;
5569;SDS011;2808;51.240;6.794;2022-07-01T05:04:15;5.00;;;3.00;;
5569;SDS011;2808;51.240;6.794;2022-07-01T05:06:43;13.30;;;2.90;;
5569;SDS011;2808;51.240;6.794;2022-07-01T05:09:11;10.30;;;4.00;;
5569;SDS011;2808;51.240;6.794;2022-07-01T05:11:38;16.00;;;8.60;;
5569;SDS011;2808;51.240;6.794;2022-07-01T05:14:07;14.17;;;3.40;;
5569;SDS011;2808;51.240;6.794;2022-07-01T05:16:35;7.70;;;2.97;;
5569;SDS011;2808;51.240;6.794;2022-07-01T05:19:03;8.70;;;3.03;;
5569;SDS011;2808;51.240;6.794;2022-07-01T05:21:48;4.60;;;2.70;;
5569;SDS011;2808;51.240;6.794;2022-07-01T05:24:26;9.70;;;2.93;;
5569;SDS011;2808;51.240;6.794;2022-07-01T05:26:55;12.03;;;2.87;;
5569;SDS011;2808;51.240;6.794;2022-07-01T05:29:24;14.10;;;3.93;;
5569;SDS011;2808;51.240;6.794;2022-07-01T05:31:52;10.10;;;4.10;;
5569;SDS011;2808;51.240;6.794;2022-07-01T05:34:20;8.20;;;5.07;;
5569;SDS011;2808;51.240;6.794;2022-07-01T05:36:47;13.00;;;5.60;;
5569;SDS011;2808;51.240;6.794;2022-07-01T05:39:15;12.27;;;5.40;;
5569;SDS011;2808;51.240;6.794;2022-07-01T05:41:43;15.80;;;5.23;;
5569;SDS011;2808;51.240;6.794;2022-07-01T05:44:10;24.80;;;12.43;;
5569;SDS011;2808;51.240;6.794;2022-07-01T05:46:39;21.23;;;10.40;;
5569;SDS011;2808;51.240;6.794;2022-07-01T05:49:07;18.07;;;8.80;;
5569;SDS011;2808;51.240;6.794;2022-07-01T05:51:34;13.70;;;4.70;;
5569;SDS011;2808;51.240;6.794;2022-07-01T05:54:05;12.03;;;4.50;;
5569;SDS011;2808;51.240;6.794;2022-07-01T05:56:32;11.20;;;4.30;;
5569;SDS011;2808;51.240;6.794;2022-07-01T05:59:00;13.17;;;4.67;;
5569;SDS011;2808;51.240;6.794;2022-07-01T06:01:29;13.73;;;5.00;;
5569;SDS011;2808;51.240;6.794;2022-07-01T06:03:57;10.20;;;4.77;;
5569;SDS011;2808;51.240;6.794;2022-07-01T06:06:26;14.70;;;5.87;;
5569;SDS011;2808;51.240;6.794;2022-07-01T06:08:54;14.60;;;5.30;;
5569;SDS011;2808;51.240;6.794;2022-07-01T06:11:31;14.87;;;6.03;;
5569;SDS011;2808;51.240;6.794;2022-07-01T06:13:58;16.17;;;5.20;;
5569;SDS011;2808;51.240;6.794;2022-07-01T06:17:03;14.80;;;5.63;;
5569;SDS011;2808;51.240;6.794;2022-07-01T06:19:36;17.30;;;4.90;;
5569;SDS011;2808;51.240;6.794;2022-07-01T06:22:09;10.17;;;5.17;;
5569;SDS011;2808;51.240;6.794;2022-07-01T06:24:53;10.60;;;4.57;;
5569;SDS011;2808;51.240;6.794;2022-07-01T06:27:20;9.77;;;4.63;;
5569;SDS011;2808;51.240;6.794;2022-07-01T06:29:48;11.90;;;4.00;;
5569;SDS011;2808;51.240;6.794;2022-07-01T06:32:29;19.40;;;4.13;;
5569;SDS011;2808;51.240;6.794;2022-07-01T06:38:13;11.10;;;4.50;;
5569;SDS011;2808;51.240;6.794;2022-07-01T06:41:02;14.23;;;4.40;;
5569;SDS011;2808;51.240;6.794;2022-07-01T06:43:52;9.37;;;4.27;;
5569;SDS011;2808;51.240;6.794;2022-07-01T06:46:55;10.67;;;4.03;;
5569;SDS011;2808;51.240;6.794;2022-07-01T06:49:38;17.00;;;4.83;;
5569;SDS011;2808;51.240;6.794;2022-07-01T06:59:58;11.17;;;3.83;;
5569;SDS011;2808;51.240;6.794;2022-07-01T07:02:26;17.30;;;4.70;;
5569;SDS011;2808;51.240;6.794;2022-07-01T07:04:59;8.30;;;5.43;;
5569;SDS011;2808;51.240;6.794;2022-07-01T07:07:27;12.07;;;5.70;;
5569;SDS011;2808;51.240;6.794;2022-07-01T07:10:05;11.47;;;5.30;;
5569;SDS011;2808;51.240;6.794;2022-07-01T07:13:03;10.47;;;4.20;;
5569;SDS011;2808;51.240;6.794;2022-07-01T07:15:34;8.60;;;4.33;;
5569;SDS011;2808;51.240;6.794;2022-07-01T07:18:01;11.90;;;4.10;;
5569;SDS011;2808;51.240;6.794;2022-07-01T07:20:29;10.17;;;3.70;;
5569;SDS011;2808;51.240;6.794;2022-07-01T07:22:56;11.30;;;3.73;;
5569;SDS011;2808;51.240;6.794;2022-07-01T07:25:24;8.70;;;3.80;;
5569;SDS011;2808;51.240;6.794;2022-07-01T07:27:52;8.30;;;3.10;;
5569;SDS011;2808;51.240;6.794;2022-07-01T07:30:21;10.83;;;3.63;;
5569;SDS011;2808;51.240;6.794;2022-07-01T07:32:49;9.17;;;3.40;;
5569;SDS011;2808;51.240;6.794;2022-07-01T07:35:20;7.53;;;3.43;;
5569;SDS011;2808;51.240;6.794;2022-07-01T07:37:50;7.13;;;3.20;;
5569;SDS011;2808;51.240;6.794;2022-07-01T07:40:21;9.47;;;3.40;;
5569;SDS011;2808;51.240;6.794;2022-07-01T07:42:49;10.83;;;3.50;;
5569;SDS011;2808;51.240;6.794;2022-07-01T07:45:17;6.40;;;3.70;;
5569;SDS011;2808;51.240;6.794;2022-07-01T07:47:47;6.57;;;4.00;;
5569;SDS011;2808;51.240;6.794;2022-07-01T07:50:15;13.83;;;4.70;;
5569;SDS011;2808;51.240;6.794;2022-07-01T07:52:43;6.53;;;3.60;;
5569;SDS011;2808;51.240;6.794;2022-07-01T07:55:13;7.23;;;3.40;;
5569;SDS011;2808;51.240;6.794;2022-07-01T07:57:41;12.87;;;4.17;;
5569;SDS011;2808;51.240;6.794;2022-07-01T08:00:11;7.93;;;4.43;;
5569;SDS011;2808;51.240;6.794;2022-07-01T08:02:39;7.13;;;3.27;;
5569;SDS011;2808;51.240;6.794;2022-07-01T08:05:13;8.30;;;3.20;;
5569;SDS011;2808;51.240;6.794;2022-07-01T08:07:45;9.90;;;3.90;;
5569;SDS011;2808;51.240;6.794;2022-07-01T08:10:13;7.23;;;3.13;;
5569;SDS011;2808;51.240;6.794;2022-07-01T08:12:41;10.77;;;4.40;;
5569;SDS011;2808;51.240;6.794;2022-07-01T08:15:09;8.83;;;3.70;;
5569;SDS011;2808;51.240;6.794;2022-07-01T08:17:36;9.93;;;3.70;;
5569;SDS011;2808;51.240;6.794;2022-07-01T08:20:04;7.33;;;2.70;;
5569;SDS011;2808;51.240;6.794;2022-07-01T08:22:39;8.03;;;4.00;;
5569;SDS011;2808;51.240;6.794;2022-07-01T08:25:07;5.93;;;4.30;;
5569;SDS011;2808;51.240;6.794;2022-07-01T08:27:35;16.00;;;4.23;;
5569;SDS011;2808;51.240;6.794;2022-07-01T08:30:06;7.00;;;3.30;;
5569;SDS011;2808;51.240;6.794;2022-07-01T08:32:35;11.47;;;3.40;;
5569;SDS011;2808;51.240;6.794;2022-07-01T08:35:05;6.80;;;2.80;;
5569;SDS011;2808;51.240;6.794;2022-07-01T08:37:38;16.30;;;5.37;;
5569;SDS011;2808;51.240;6.794;2022-07-01T08:40:06;13.70;;;4.30;;
5569;SDS011;2808;51.240;6.794;2022-07-01T08:42:37;7.77;;;3.37;;
5569;SDS011;2808;51.240;6.794;2022-07-01T08:45:08;10.67;;;6.37;;
5569;SDS011;2808;51.240;6.794;2022-07-01T08:47:49;9.30;;;4.43;;
5569;SDS011;2808;51.240;6.794;2022-07-01T08:50:22;8.40;;;3.33;;
5569;SDS011;2808;51.240;6.794;2022-07-01T08:52:52;9.10;;;4.03;;
5569;SDS011;2808;51.240;6.794;2022-07-01T08:55:22;7.47;;;3.43;;
5569;SDS011;2808;51.240;6.794;2022-07-01T08:57:51;5.93;;;2.50;;
5569;SDS011;2808;51.240;6.794;2022-07-01T09:00:19;6.37;;;2.77;;
5569;SDS011;2808;51.240;6.794;2022-07-01T09:05:32;15.77;;;5.20;;
5569;SDS011;2808;51.240;6.794;2022-07-01T09:08:02;12.20;;;3.10;;
5569;SDS011;2808;51.240;6.794;2022-07-01T09:10:32;5.53;;;2.50;;
5569;SDS011;2808;51.240;6.794;2022-07-01T09:13:03;10.70;;;6.30;;
5569;SDS011;2808;51.240;6.794;2022-07-01T09:15:33;13.83;;;5.70;;
5569;SDS011;2808;51.240;6.794;2022-07-01T09:18:02;7.40;;;2.80;;
5569;SDS011;2808;51.240;6.794;2022-07-01T09:20:32;6.37;;;2.43;;
5569;SDS011;2808;51.240;6.794;2022-07-01T09:23:03;10.20;;;5.03;;
5569;SDS011;2808;51.240;6.794;2022-07-01T09:25:33;6.40;;;2.20;;
5569;SDS011;2808;51.240;6.794;2022-07-01T09:28:06;15.33;;;2.10;;
5569;SDS011;2808;51.240;6.794;2022-07-01T09:30:35;7.73;;;2.40;;
5569;SDS011;2808;51.240;6.794;2022-07-01T09:33:05;4.23;;;2.60;;
5569;SDS011;2808;51.240;6.794;2022-07-01T09:35:33;6.10;;;2.23;;
5569;SDS011;2808;51.240;6.794;2022-07-01T09:38:03;7.87;;;2.13;;
5569;SDS011;2808;51.240;6.794;2022-07-01T09:40:50;5.70;;;1.77;;
5569;SDS011;2808;51.240;6.794;2022-07-01T09:43:22;7.20;;;2.20;;
5569;SDS011;2808;51.240;6.794;2022-07-01T09:45:51;7.10;;;2.40;;
5569;SDS011;2808;51.240;6.794;2022-07-01T09:48:22;6.77;;;2.30;;
5569;SDS011;2808;51.240;6.794;2022-07-01T09:50:53;5.63;;;1.90;;
5569;SDS011;2808;51.240;6.794;2022-07-01T09:53:32;8.87;;;2.33;;
5569;SDS011;2808;51.240;6.794;2022-07-01T09:56:02;8.37;;;1.60;;
5569;SDS011;2808;51.240;6.794;2022-07-01T09:58:29;4.97;;;1.60;;
5569;SDS011;2808;51.240;6.794;2022-07-01T10:01:08;13.10;;;2.40;;
5569;SDS011;2808;51.240;6.794;2022-07-01T10:03:44;6.60;;;1.97;;
5569;SDS011;2808;51.240;6.794;2022-07-01T10:06:28;8.67;;;2.00;;
5569;SDS011;2808;51.240;6.794;2022-07-01T10:09:18;4.87;;;2.00;;
5569;SDS011;2808;51.240;6.794;2022-07-01T10:12:01;6.10;;;1.70;;
5569;SDS011;2808;51.240;6.794;2022-07-01T10:14:56;5.03;;;1.63;;
5569;SDS011;2808;51.240;6.794;2022-07-01T10:17:26;9.63;;;1.87;;
5569;SDS011;2808;51.240;6.794;2022-07-01T10:19:54;10.43;;;5.07;;
5569;SDS011;2808;51.240;6.794;2022-07-01T10:22:26;7.90;;;3.00;;
5569;SDS011;2808;51.240;6.794;2022-07-01T10:28:18;7.13;;;1.80;;
5569;SDS011;2808;51.240;6.794;2022-07-01T10:30:57;7.30;;;1.90;;
5569;SDS011;2808;51.240;6.794;2022-07-01T10:33:27;11.10;;;2.83;;
5569;SDS011;2808;51.240;6.794;2022-07-01T10:36:05;8.93;;;2.07;;
5569;SDS011;2808;51.240;6.794;2022-07-01T10:41:39;8.10;;;2.03;;
5569;SDS011;2808;51.240;6.794;2022-07-01T10:44:08;4.67;;;1.77;;
5569;SDS011;2808;51.240;6.794;2022-07-01T10:46:40;9.17;;;1.80;;
5569;SDS011;2808;51.240;6.794;2022-07-01T10:49:10;4.20;;;1.40;;
5569;SDS011;2808;51.240;6.794;2022-07-01T10:51:42;5.83;;;1.90;;
5569;SDS011;2808;51.240;6.794;2022-07-01T10:54:13;6.50;;;2.27;;
5569;SDS011;2808;51.240;6.794;2022-07-01T10:57:25;8.33;;;2.10;;
5569;SDS011;2808;51.240;6.794;2022-07-01T11:03:14;6.70;;;1.80;;
5569;SDS011;2808;51.240;6.794;2022-07-01T11:05:48;5.17;;;1.50;;
5569;SDS011;2808;51.240;6.794;2022-07-01T11:08:19;7.37;;;1.70;;
5569;SDS011;2808;51.240;6.794;2022-07-01T11:10:49;3.90;;;1.70;;
5569;SDS011;2808;51.240;6.794;2022-07-01T11:13:28;6.90;;;2.17;;
5569;SDS011;2808;51.240;6.794;2022-07-01T11:16:00;6.97;;;1.67;;
5569;SDS011;2808;51.240;6.794;2022-07-01T11:18:30;7.63;;;1.93;;
5569;SDS011;2808;51.240;6.794;2022-07-01T11:21:04;5.20;;;1.30;;
5569;SDS011;2808;51.240;6.794;2022-07-01T11:23:37;3.83;;;1.50;;
5569;SDS011;2808;51.240;6.794;2022-07-01T11:26:05;4.43;;;1.37;;
5569;SDS011;2808;51.240;6.794;2022-07-01T11:28:50;6.03;;;2.10;;
5569;SDS011;2808;51.240;6.794;2022-07-01T11:31:29;3.90;;;1.50;;
5569;SDS011;2808;51.240;6.794;2022-07-01T11:33:57;7.13;;;1.33;;
5569;SDS011;2808;51.240;6.794;2022-07-01T11:36:25;6.00;;;1.43;;
5569;SDS011;2808;51.240;6.794;2022-07-01T11:39:10;6.23;;;1.70;;
5569;SDS011;2808;51.240;6.794;2022-07-01T11:41:53;5.07;;;1.43;;
5569;SDS011;2808;51.240;6.794;2022-07-01T11:44:30;4.40;;;1.50;;
5569;SDS011;2808;51.240;6.794;2022-07-01T11:47:02;7.60;;;2.40;;
5569;SDS011;2808;51.240;6.794;2022-07-01T11:49:31;5.50;;;1.30;;
5569;SDS011;2808;51.240;6.794;2022-07-01T11:52:00;4.80;;;1.40;;
5569;SDS011;2808;51.240;6.794;2022-07-01T11:54:29;4.10;;;1.50;;
5569;SDS011;2808;51.240;6.794;2022-07-01T11:57:08;6.03;;;1.60;;
5569;SDS011;2808;51.240;6.794;2022-07-01T11:59:38;4.77;;;1.60;;
5569;SDS011;2808;51.240;6.794;2022-07-01T12:02:07;4.20;;;1.20;;
5569;SDS011;2808;51.240;6.794;2022-07-01T12:04:36;7.03;;;1.80;;
5569;SDS011;2808;51.240;6.794;2022-07-01T12:07:04;4.43;;;1.33;;
5569;SDS011;2808;51.240;6.794;2022-07-01T12:09:34;4.53;;;1.33;;
5569;SDS011;2808;51.240;6.794;2022-07-01T12:12:02;6.80;;;1.47;;
5569;SDS011;2808;51.240;6.794;2022-07-01T12:14:31;5.07;;;1.40;;
5569;SDS011;2808;51.240;6.794;2022-07-01T12:17:02;4.33;;;1.37;;
5569;SDS011;2808;51.240;6.794;2022-07-01T12:19:39;3.93;;;1.33;;
5569;SDS011;2808;51.240;6.794;2022-07-01T12:22:11;7.80;;;1.70;;
5569;SDS011;2808;51.240;6.794;2022-07-01T12:24:40;3.43;;;1.20;;
5569;SDS011;2808;51.240;6.794;2022-07-01T12:27:09;7.20;;;2.43;;
5569;SDS011;2808;51.240;6.794;2022-07-01T12:29:50;6.17;;;2.60;;
5569;SDS011;2808;51.240;6.794;2022-07-01T12:32:26;5.90;;;1.40;;
5569;SDS011;2808;51.240;6.794;2022-07-01T12:35:26;7.23;;;1.50;;
5569;SDS011;2808;51.240;6.794;2022-07-01T12:59:02;14.30;;;7.97;;
5569;SDS011;2808;51.240;6.794;2022-07-01T13:01:36;4.50;;;1.30;;
5569;SDS011;2808;51.240;6.794;2022-07-01T13:04:30;5.53;;;1.30;;
5569;SDS011;2808;51.240;6.794;2022-07-01T13:07:36;3.53;;;1.10;;
5569;SDS011;2808;51.240;6.794;2022-07-01T13:13:51;8.47;;;3.00;;
5569;SDS011;2808;51.240;6.794;2022-07-01T13:16:21;5.60;;;1.50;;
5569;SDS011;2808;51.240;6.794;2022-07-01T13:18:54;7.40;;;1.13;;
5569;SDS011;2808;51.240;6.794;2022-07-01T13:21:29;4.80;;;1.37;;
5569;SDS011;2808;51.240;6.794;2022-07-01T13:23:59;5.73;;;1.40;;
5569;SDS011;2808;51.240;6.794;2022-07-01T13:26:29;7.43;;;1.60;;
5569;SDS011;2808;51.240;6.794;2022-07-01T13:28:58;5.67;;;1.87;;
5569;SDS011;2808;51.240;6.794;2022-07-01T13:31:28;4.33;;;1.00;;
5569;SDS011;2808;51.240;6.794;2022-07-01T13:33:56;5.77;;;1.40;;
5569;SDS011;2808;51.240;6.794;2022-07-01T13:36:24;4.93;;;1.20;;
5569;SDS011;2808;51.240;6.794;2022-07-01T13:38:51;5.33;;;1.13;;
5569;SDS011;2808;51.240;6.794;2022-07-01T13:41:19;3.63;;;1.03;;
5569;SDS011;2808;51.240;6.794;2022-07-01T13:43:46;3.33;;;1.10;;
5569;SDS011;2808;51.240;6.794;2022-07-01T13:46:16;6.20;;;1.10;;
5569;SDS011;2808;51.240;6.794;2022-07-01T13:48:43;5.23;;;1.30;;
5569;SDS011;2808;51.240;6.794;2022-07-01T13:51:13;6.43;;;1.30;;
5569;SDS011;2808;51.240;6.794;2022-07-01T13:53:41;4.50;;;1.43;;
5569;SDS011;2808;51.240;6.794;2022-07-01T13:56:09;5.93;;;1.30;;
5569;SDS011;2808;51.240;6.794;2022-07-01T13:58:37;3.07;;;1.03;;
5569;SDS011;2808;51.240;6.794;2022-07-01T14:01:04;8.03;;;1.50;;
5569;SDS011;2808;51.240;6.794;2022-07-01T14:03:35;5.43;;;1.30;;
5569;SDS011;2808;51.240;6.794;2022-07-01T14:06:13;3.00;;;1.20;;
5569;SDS011;2808;51.240;6.794;2022-07-01T14:08:48;3.33;;;1.10;;
5569;SDS011;2808;51.240;6.794;2022-07-01T14:11:22;5.80;;;1.20;;
5569;SDS011;2808;51.240;6.794;2022-07-01T14:13:56;6.03;;;1.30;;
5569;SDS011;2808;51.240;6.794;2022-07-01T14:16:26;4.73;;;1.33;;
5569;SDS011;2808;51.240;6.794;2022-07-01T14:19:03;6.00;;;1.27;;
5569;SDS011;2808;51.240;6.794;2022-07-01T14:21:31;3.30;;;1.10;;
5569;SDS011;2808;51.240;6.794;2022-07-01T14:23:58;3.70;;;1.17;;
5569;SDS011;2808;51.240;6.794;2022-07-01T14:26:26;5.37;;;1.10;;
5569;SDS011;2808;51.240;6.794;2022-07-01T14:28:57;5.33;;;1.20;;
5569;SDS011;2808;51.240;6.794;2022-07-01T14:31:25;5.03;;;1.20;;
5569;SDS011;2808;51.240;6.794;2022-07-01T14:33:53;4.70;;;1.00;;
5569;SDS011;2808;51.240;6.794;2022-07-01T14:36:24;4.77;;;1.00;;
5569;SDS011;2808;51.240;6.794;2022-07-01T14:38:51;4.57;;;1.53;;
5569;SDS011;2808;51.240;6.794;2022-07-01T14:41:19;10.13;;;1.20;;
5569;SDS011;2808;51.240;6.794;2022-07-01T14:43:47;3.70;;;1.10;;
5569;SDS011;2808;51.240;6.794;2022-07-01T14:46:15;5.83;;;1.30;;
5569;SDS011;2808;51.240;6.794;2022-07-01T14:48:43;3.47;;;1.20;;
5569;SDS011;2808;51.240;6.794;2022-07-01T14:51:15;8.53;;;1.27;;
5569;SDS011;2808;51.240;6.794;2022-07-01T14:56:53;3.90;;;1.30;;
5569;SDS011;2808;51.240;6.794;2022-07-01T14:59:26;3.97;;;1.20;;
5569;SDS011;2808;51.240;6.794;2022-07-01T15:01:53;6.03;;;1.20;;
5569;SDS011;2808;51.240;6.794;2022-07-01T15:04:25;4.50;;;1.33;;
5569;SDS011;2808;51.240;6.794;2022-07-01T15:06:54;7.50;;;1.17;;
5569;SDS011;2808;51.240;6.794;2022-07-01T15:09:23;2.60;;;1.00;;
5569;SDS011;2808;51.240;6.794;2022-07-01T15:11:52;4.10;;;1.43;;
5569;SDS011;2808;51.240;6.794;2022-07-01T15:14:20;3.77;;;1.30;;
5569;SDS011;2808;51.240;6.794;2022-07-01T15:17:00;7.30;;;1.10;;
5569;SDS011;2808;51.240;6.794;2022-07-01T15:19:28;3.30;;;1.53;;
5569;SDS011;2808;51.240;6.794;2022-07-01T15:21:56;4.83;;;1.30;;
5569;SDS011;2808;51.240;6.794;2022-07-01T15:24:27;4.00;;;1.10;;
5569;SDS011;2808;51.240;6.794;2022-07-01T15:26:59;3.90;;;1.23;;
5569;SDS011;2808;51.240;6.794;2022-07-01T15:29:28;4.93;;;1.30;;
5569;SDS011;2808;51.240;6.794;2022-07-01T15:31:56;5.20;;;1.30;;
5569;SDS011;2808;51.240;6.794;2022-07-01T15:34:25;4.20;;;1.13;;
5569;SDS011;2808;51.240;6.794;2022-07-01T15:36:53;7.53;;;1.87;;
5569;SDS011;2808;51.240;6.794;2022-07-01T15:39:24;5.20;;;1.30;;
5569;SDS011;2808;51.240;6.794;2022-07-01T15:42:33;5.20;;;1.43;;
5569;SDS011;2808;51.240;6.794;2022-07-01T15:45:30;4.13;;;1.43;;
5569;SDS011;2808;51.240;6.794;2022-07-01T15:47:58;3.70;;;1.07;;
5569;SDS011;2808;51.240;6.794;2022-07-01T15:50:48;4.20;;;1.10;;
5569;SDS011;2808;51.240;6.794;2022-07-01T15:56:27;3.70;;;1.10;;
5569;SDS011;2808;51.240;6.794;2022-07-01T15:58:55;3.60;;;1.20;;
5569;SDS011;2808;51.240;6.794;2022-07-01T16:01:23;7.50;;;1.40;;
5569;SDS011;2808;51.240;6.794;2022-07-01T16:03:52;5.90;;;1.20;;
5569;SDS011;2808;51.240;6.794;2022-07-01T16:06:23;3.70;;;1.23;;
5569;SDS011;2808;51.240;6.794;2022-07-01T16:08:54;3.73;;;1.10;;
5569;SDS011;2808;51.240;6.794;2022-07-01T16:11:24;3.00;;;1.30;;
5569;SDS011;2808;51.240;6.794;2022-07-01T16:13:56;3.70;;;1.30;;
5569;SDS011;2808;51.240;6.794;2022-07-01T16:16:25;12.70;;;1.30;;
5569;SDS011;2808;51.240;6.794;2022-07-01T16:19:07;3.80;;;1.40;;
5569;SDS011;2808;51.240;6.794;2022-07-01T16:22:11;4.13;;;1.23;;
5569;SDS011;2808;51.240;6.794;2022-07-01T16:24:39;2.60;;;1.00;;
5569;SDS011;2808;51.240;6.794;2022-07-01T16:27:10;2.93;;;1.20;;
5569;SDS011;2808;51.240;6.794;2022-07-01T16:29:40;4.87;;;1.20;;